Happy Valentine's Day! 

Flight Track Log - Related Links

Times and Time Zones

All times are in EDT time to prevent confusion due to time zone crossing. See the N804CE flight status page for this flight to view local times or setup timezone preferences in your user account.


Time Position Orientation Groundspeed Altitude Reporting Facility
EDT Latitude Longitude Course Direction KTS MPH feet Rate Location/Type
Fri 04:14:15 PM 32.9179 -80.0585 215° Southwest  Level FlightAware Approximate
Fri 04:14:58 PM 32.8481 -80.1158 329° Northwest 238 274 4,300  Level Jacksonville Center
Fri 04:15:58 PM 32.9072 -80.1586 349° North 290 334 7,500 2,850 Climbing Jacksonville Center
Fri 04:16:58 PM 32.9850 -80.1758 348° North 332 382 10,000 2,200 Climbing Jacksonville Center
Fri 04:17:58 PM 33.0647 -80.1958 349° North 334 384 11,900 2,300 Climbing Jacksonville Center
Fri 04:18:58 PM 33.1506 -80.2156 348° North 324 373 14,600 2,050 Climbing Jacksonville Center
Fri 04:19:58 PM 33.2389 -80.2378 329° Northwest 319 367 16,000 1,750 Climbing Jacksonville Center
Fri 04:20:58 PM 33.3172 -80.2950 322° Northwest 319 367 18,100 2,000 Climbing Jacksonville Center
Fri 04:21:58 PM 33.3875 -80.3603 321° Northwest 319 367 20,000 1,750 Climbing Jacksonville Center
Fri 04:22:58 PM 33.4575 -80.4278 322° Northwest 319 367 21,600 1,500 Climbing Jacksonville Center
Fri 04:23:58 PM 33.5297 -80.4956 319° Northwest 324 373 23,000 1,300 Climbing Jacksonville Center
Fri 04:24:58 PM 33.6000 -80.5686 308° West 334 384 24,200 1,100 Climbing Jacksonville Center
Fri 04:25:58 PM 33.6581 -80.6569 309° West 334 384 25,200 1,200 Climbing Jacksonville Center
Fri 04:26:58 PM 33.7181 -80.7453 308° West 339 390 26,600 1,500 Climbing Jacksonville Center
Fri 04:27:58 PM 33.7736 -80.8314 312° West 339 390 28,200 1,600 Climbing Jacksonville Center
Fri 04:28:58 PM 33.8314 -80.9100 311° West 328 377 29,800 1,450 Climbing Jacksonville Center
Fri 04:29:58 PM 33.8867 -80.9864 311° West 316 364 31,100 1,350 Climbing Jacksonville Center
Fri 04:30:58 PM 33.9464 -81.0700 338° Northwest 306 352 32,500 967 Climbing Jacksonville Center
Fri 04:32:58 PM 34.1019 -81.1469 340° North 300 345 34,000 404 Climbing Jacksonville Center
Fri 04:34:41 PM 34.2375 -81.2069 337° Northwest 310 357 34,000  Level Atlanta Center
Fri 04:35:40 PM 34.3197 -81.2494 337° Northwest 323 372 34,000  Level Atlanta Center
Fri 04:36:40 PM 34.4064 -81.2944 350° North 323 372 34,000  Level Atlanta Center
Fri 04:37:41 PM 34.4944 -81.3142 355° North 323 372 34,000  Level Atlanta Center
Fri 04:38:41 PM 34.5886 -81.3239 355° North 323 372 34,000  Level Atlanta Center
Fri 04:39:40 PM 34.6828 -81.3333 352° North 337 388 34,000  Level Atlanta Center
Fri 04:40:41 PM 34.7728 -81.3483 346° North 332 382 34,000  Level Atlanta Center
Fri 04:41:40 PM 34.8611 -81.3758 321° Northwest 326 375 34,000  Level Atlanta Center
Fri 04:42:40 PM 34.9356 -81.4494 319° Northwest 313 360 34,000  Level Atlanta Center
Fri 04:43:40 PM 34.9997 -81.5183 319° Northwest 313 360 34,000  Level Atlanta Center
Fri 04:44:40 PM 35.0678 -81.5900 319° Northwest 306 352 34,000  Level Atlanta Center
Fri 04:45:40 PM 35.1339 -81.6592 318° Northwest 319 367 34,000  Level Atlanta Center
Fri 04:46:41 PM 35.2000 -81.7308 318° Northwest 319 367 34,000  Level Atlanta Center
Fri 04:47:40 PM 35.2661 -81.8028 318° Northwest 319 367 34,000  Level Atlanta Center
Fri 04:48:40 PM 35.3319 -81.8747 319° Northwest 314 361 34,000  Level Atlanta Center
Fri 04:49:40 PM 35.3894 -81.9369 318° Northwest 314 361 34,000  Level Atlanta Center
Fri 04:50:40 PM 35.4553 -82.0092 318° Northwest 319 367 34,000  Level Atlanta Center
Fri 04:51:40 PM 35.5211 -82.0817 320° Northwest 319 367 34,000  Level Atlanta Center
Fri 04:52:40 PM 35.5889 -82.1517 317° Northwest 319 367 34,000  Level Atlanta Center
Fri 04:53:40 PM 35.6547 -82.2267 319° Northwest 319 367 34,000  Level Atlanta Center
Fri 04:54:40 PM 35.7225 -82.2994 318° Northwest 319 367 34,000  Level Atlanta Center
Fri 04:55:40 PM 35.7883 -82.3722 318° Northwest 313 360 34,000  Level Atlanta Center
Fri 04:56:40 PM 35.8519 -82.4425 319° Northwest 313 360 34,000  Level Atlanta Center
Fri 04:57:40 PM 35.9194 -82.5156 318° Northwest 313 360 34,000  Level Atlanta Center
Fri 04:58:40 PM 35.9850 -82.5889 318° Northwest 319 367 34,000  Level Atlanta Center
Fri 04:59:40 PM 36.0506 -82.6622 317° Northwest 319 367 34,000  Level Atlanta Center
Fri 05:00:40 PM 36.1119 -82.7331 319° Northwest 313 360 34,000  Level Atlanta Center
Fri 05:01:40 PM 36.1772 -82.8039 317° Northwest 313 360 34,000  Level Atlanta Center
Fri 05:02:40 PM 36.2406 -82.8778 317° Northwest 308 354 34,000  Level Atlanta Center
Fri 05:04:23 PM 36.3500 -83.0028 318° Northwest 310 357 34,000  Level Indianapolis Center
Fri 05:05:23 PM 36.4147 -83.0744 317° Northwest 310 357 34,000  Level Indianapolis Center
Fri 05:06:23 PM 36.4797 -83.1489 316° Northwest 315 362 34,000  Level Indianapolis Center
Fri 05:07:23 PM 36.5425 -83.2236 318° Northwest 315 362 34,000  Level Indianapolis Center
Fri 05:08:23 PM 36.6075 -83.2958 317° Northwest 315 362 34,000  Level Indianapolis Center
Fri 05:09:23 PM 36.6722 -83.3706 318° Northwest 315 362 34,000  Level Indianapolis Center
Fri 05:10:23 PM 36.7369 -83.4431 317° Northwest 315 362 34,000  Level Indianapolis Center
Fri 05:11:23 PM 36.8017 -83.5181 317° Northwest 315 362 34,000  Level Indianapolis Center
Fri 05:12:23 PM 36.8622 -83.5881 318° Northwest 320 368 34,000  Level Indianapolis Center
Fri 05:13:23 PM 36.9269 -83.6608 318° Northwest 314 361 34,000  Level Indianapolis Center
Fri 05:14:23 PM 36.9914 -83.7339 318° Northwest 314 361 34,000  Level Indianapolis Center
Fri 05:15:23 PM 37.0581 -83.8094 316° Northwest 319 367 34,000  Level Indianapolis Center
Fri 05:16:23 PM 37.1206 -83.8853 318° Northwest 314 361 34,000  Level Indianapolis Center
Fri 05:17:23 PM 37.1850 -83.9586 318° Northwest 319 367 34,000  Level Indianapolis Center
Fri 05:18:23 PM 37.2514 -84.0344 318° Northwest 314 361 34,000  Level Indianapolis Center
Fri 05:19:23 PM 37.3136 -84.1053 317° Northwest 314 361 34,000  Level Indianapolis Center
Fri 05:20:23 PM 37.3781 -84.1817 317° Northwest 314 361 34,000  Level Indianapolis Center
Fri 05:21:23 PM 37.4400 -84.2553 317° Northwest 314 361 34,000  Level Indianapolis Center
Fri 05:22:23 PM 37.5042 -84.3294 317° Northwest 314 361 34,000 -100 Level Indianapolis Center
Fri 05:23:23 PM 37.5664 -84.4033 317° Northwest 314 361 33,800 -350 Descending Indianapolis Center
Fri 05:24:23 PM 37.6306 -84.4800 316° Northwest 314 361 33,300 -700 Descending Indianapolis Center
Fri 05:25:23 PM 37.6944 -84.5569 317° Northwest 314 361 32,400 -1,250 Descending Indianapolis Center
Fri 05:26:23 PM 37.7625 -84.6367 317° Northwest 320 368 30,800 -1,636 Descending Indianapolis Center
Fri 05:27:24 PM 37.8306 -84.7167 316° Northwest 320 368 29,100 -1,400 Descending Indianapolis Center
Fri 05:28:23 PM 37.9047 -84.8072 316° Northwest 326 375 28,000 -555 Descending Indianapolis Center
Fri 05:29:23 PM 37.9728 -84.8900 318° Northwest 331 381 28,000  Level Indianapolis Center
Fri 05:30:23 PM 38.0447 -84.9731 317° Northwest 341 392 28,000  Level Indianapolis Center
Fri 05:31:23 PM 38.1147 -85.0564 318° Northwest 341 392 28,000 -600 Level Indianapolis Center
Fri 05:32:23 PM 38.1844 -85.1369 315° West 341 392 26,800 -1,800 Descending Indianapolis Center
Fri 05:33:23 PM 38.2439 -85.2125 316° Northwest 336 387 24,400 -2,500 Descending Indianapolis Center
Fri 05:34:23 PM 38.3158 -85.3014 319° Northwest 347 399 21,800 -2,773 Descending Indianapolis Center
Fri 05:35:22 PM 38.3958 -85.3911 321° Northwest 363 418 18,900 -2,727 Descending FAA TRACON SMA TRACON (SMA)
Fri 05:36:02 PM 38.4500 -85.4478 334° Northwest 365 420 17,300 -2,100 Descending FAA TRACON SMA TRACON (SMA)
Fri 05:36:42 PM 38.5044 -85.4814 336° Northwest 356 410 16,100 -1,063 Descending FAA TRACON SMA TRACON (SMA)
Fri 05:37:21 PM 38.5675 -85.5167 337° Northwest 357 411 15,900 -150 Descending FAA TRACON SMA TRACON (SMA)
Fri 05:38:02 PM 38.6303 -85.5511 337° Northwest 355 409 15,900 -296 Level FAA TRACON SMA TRACON (SMA)
Fri 05:38:42 PM 38.6864 -85.5819 338° Northwest 356 410 15,500 -1,125 Descending FAA TRACON SMA TRACON (SMA)
Fri 05:39:22 PM 38.7447 -85.6128 337° Northwest 328 377 14,400 -1,950 Descending FAA TRACON SMA TRACON (SMA)
Fri 05:40:02 PM 38.7961 -85.6408 336° Northwest 290 334 12,900 -2,278 Descending FAA TRACON SMA TRACON (SMA)
Fri 05:40:41 PM 38.8397 -85.6656 337° Northwest 278 320 11,400 -2,625 Descending FAA TRACON SMA TRACON (SMA)
Fri 05:41:22 PM 38.8878 -85.6914 337° Northwest 270 311 9,400 -2,824 Descending FAA TRACON SMA TRACON (SMA)
Fri 05:42:23 PM 38.9594 -85.7308 337° Northwest 270 311 6,600 -2,182 Descending Indianapolis Center
Fri 05:43:23 PM 39.0172 -85.7619 334° Northwest 270 311 5,000 -1,100 Descending Indianapolis Center
Fri 05:44:23 PM 39.0708 -85.7958 327° Northwest 233 268 4,400 -1,150 Descending Indianapolis Center
Fri 05:45:23 PM 39.1181 -85.8347 327° Northwest 208 239 2,700 -1,100 Descending Indianapolis Center
Fri 05:46:23 PM 39.1650 -85.8736 326° Northwest 208 239 2,200 -350 Descending Indianapolis Center
Fri 05:47:23 PM 39.1939 -85.8989 331° Northwest 159 183 2,000 -400 Descending Indianapolis Center
Fri 05:48:23 PM 39.2247 -85.9211 333° Northwest 125 144 1,400 -400 Descending Indianapolis Center
Fri 05:49:23 PM 39.2597 -85.9439 334° Northwest 119 137 1,200 1,800 Descending Indianapolis Center
Fri 05:50:23 PM 39.2906 -85.9636 331° Northwest 119 137 5,000 1,900 Climbing Indianapolis Center
Fri 05:51:23 PM 39.3214 -85.9861 333° Northwest 119 137 5,000  Level Indianapolis Center
Fri 05:52:23 PM 39.3522 -86.0061 332° Northwest 119 137 5,000  Level Indianapolis Center
Fri 05:53:23 PM 39.3644 -86.0144 332° Northwest 119 137 5,000  Level Indianapolis Center

Login

Don't have an account? Register now (free) for customized features, flight alerts, and more!